Time;durP1;ratioP1;P1;durP2;ratioP2;P2;SDS_P1;SDS_P2;PMS_P1;PMS_P2;Temp;Humidity;BMP_temperature;BMP_pressure;BME280_temperature;BME280_humidity;BME280_pressure;Samples;Min_cycle;Max_cycle;Signal;HPM_P1;HPM_P2
2023/05/21 00:00:09;;;;;;;4.18;3.03;;;;;;;12.96;88.07;101768.66;5027315;28;20100;-62
2023/05/21 00:02:35;;;;;;;4.10;2.95;;;;;;;12.91;88.99;101763.00;5027096;28;20025;-63
2023/05/21 00:05:00;;;;;;;3.80;3.22;;;;;;;12.85;89.68;101774.91;5026707;28;20024;-62
2023/05/21 00:07:26;;;;;;;5.95;3.30;;;;;;;12.79;90.17;101763.94;5026464;28;20021;-63
2023/05/21 00:09:51;;;;;;;4.90;3.35;;;;;;;12.74;90.47;101764.63;5026135;28;20068;-63
2023/05/21 00:12:17;;;;;;;3.92;2.72;;;;;;;12.65;91.64;101764.03;5026972;28;20116;-63
2023/05/21 00:14:42;;;;;;;4.95;3.50;;;;;;;12.61;91.93;101757.25;5027241;28;20044;-63
2023/05/21 00:17:07;;;;;;;4.32;3.03;;;;;;;12.60;92.25;101757.50;5026341;28;20041;-62
2023/05/21 00:19:33;;;;;;;5.65;3.28;;;;;;;12.54;92.02;101761.97;5026545;28;20029;-63
2023/05/21 00:22:01;;;;;;;6.68;3.20;;;;;;;12.48;92.29;101751.00;5026097;28;20544;-62
2023/05/21 00:24:27;;;;;;;4.72;3.20;;;;;;;12.47;92.38;101747.41;5026703;28;20097;-62
2023/05/21 00:26:52;;;;;;;5.05;3.40;;;;;;;12.40;93.05;101749.34;5027413;28;20112;-63
2023/05/21 00:29:17;;;;;;;4.93;3.35;;;;;;;12.34;93.79;101747.47;5026493;28;20481;-63
2023/05/21 00:31:42;;;;;;;4.18;3.15;;;;;;;12.35;94.44;101744.50;5026355;28;20037;-63
2023/05/21 00:34:08;;;;;;;4.90;3.47;;;;;;;12.35;94.29;101749.16;5026795;28;20036;-63
2023/05/21 00:36:33;;;;;;;4.65;3.17;;;;;;;12.35;94.10;101751.91;5025305;28;20207;-63
2023/05/21 00:38:58;;;;;;;4.90;3.38;;;;;;;12.33;95.20;101748.56;5026317;28;20463;-63
2023/05/21 00:41:24;;;;;;;4.95;3.20;;;;;;;12.31;95.10;101740.47;5026025;28;20052;-64
2023/05/21 00:43:51;;;;;;;4.80;3.53;;;;;;;12.30;95.13;101744.31;5026868;28;20041;-63
2023/05/21 00:46:18;;;;;;;5.80;3.40;;;;;;;12.27;95.30;101739.25;5026356;28;20052;-63
2023/05/21 00:48:45;;;;;;;5.50;4.13;;;;;;;12.25;95.53;101738.63;5026281;28;20030;-62
2023/05/21 00:51:11;;;;;;;5.43;3.88;;;;;;;12.26;95.86;101737.53;5024953;28;20476;-63
2023/05/21 00:53:36;;;;;;;5.05;3.58;;;;;;;12.25;97.44;101737.78;5026289;28;20029;-63
2023/05/21 00:56:02;;;;;;;5.30;3.60;;;;;;;12.31;95.88;101734.97;5026090;28;20556;-62
2023/05/21 00:58:28;;;;;;;4.28;3.30;;;;;;;12.24;96.80;101739.69;5026552;28;20587;-63
2023/05/21 01:00:56;;;;;;;5.15;3.38;;;;;;;12.29;96.74;101736.28;5024549;28;20033;-64
2023/05/21 01:03:22;;;;;;;4.70;3.85;;;;;;;12.26;97.90;101737.53;5026372;28;20018;-63
2023/05/21 01:05:49;;;;;;;4.38;3.53;;;;;;;12.29;96.51;101736.28;5025354;28;20025;-62
2023/05/21 01:08:15;;;;;;;5.65;3.75;;;;;;;12.29;97.35;101739.03;5025640;28;20037;-62
2023/05/21 01:10:40;;;;;;;4.72;3.50;;;;;;;12.30;97.79;101736.03;5025784;28;20083;-62
2023/05/21 01:13:06;;;;;;;5.78;3.58;;;;;;;12.31;97.94;101739.66;5025934;28;20379;-63
2023/05/21 01:15:31;;;;;;;4.68;3.50;;;;;;;12.28;98.14;101735.44;5026232;28;20067;-63
2023/05/21 01:17:57;;;;;;;4.80;3.63;;;;;;;12.27;98.07;101732.91;5025387;28;20163;-63
2023/05/21 01:20:23;;;;;;;5.45;3.50;;;;;;;12.25;98.89;101733.13;5025022;28;20025;-63
2023/05/21 01:22:55;;;;;;;5.10;3.85;;;;;;;12.26;99.45;101729.28;5025653;28;20029;-63
2023/05/21 01:25:22;;;;;;;7.43;3.83;;;;;;;12.31;99.22;101723.13;5026253;28;20032;-63
2023/05/21 01:27:48;;;;;;;5.05;3.63;;;;;;;12.30;99.72;101722.28;5025706;28;20033;-63
2023/05/21 01:30:14;;;;;;;4.30;3.60;;;;;;;12.30;99.99;101722.28;5025660;28;20033;-63
2023/05/21 01:33:03;;;;;;;4.68;3.40;;;;;;;12.34;99.28;101723.53;5025601;28;20480;-63
2023/05/21 01:35:34;;;;;;;4.72;3.75;;;;;;;12.33;99.63;101723.75;5024909;28;20129;-63
2023/05/21 01:38:07;;;;;;;4.47;3.90;;;;;;;12.35;99.42;101722.47;5024893;28;20507;-64
2023/05/21 01:41:03;;;;;;;5.57;3.42;;;;;;;12.41;98.39;101720.72;5025552;28;20025;-63
2023/05/21 01:43:31;;;;;;;5.63;3.83;;;;;;;12.43;98.00;101724.97;5023635;28;20047;-62
2023/05/21 01:45:58;;;;;;;5.03;4.00;;;;;;;12.46;98.74;101724.50;5024938;28;20032;-63
2023/05/21 01:48:26;;;;;;;6.93;3.60;;;;;;;12.54;98.89;101722.56;5025257;28;20020;-63
2023/05/21 01:50:54;;;;;;;;;;;;;;;12.64;95.45;101720.16;5025004;28;20036;-63
2023/05/21 01:53:20;;;;;;;4.97;3.47;;;;;;;12.61;98.57;101713.16;5025537;28;19939;-63
2023/05/21 01:55:45;;;;;;;5.82;4.38;;;;;;;12.67;99.10;101717.81;5025058;28;20037;-63
2023/05/21 01:58:11;;;;;;;6.60;3.90;;;;;;;12.67;98.16;101719.69;5024417;28;20173;-63
2023/05/21 02:00:38;;;;;;;4.32;3.88;;;;;;;12.71;99.44;101718.19;5025038;28;20427;-63
2023/05/21 02:03:04;;;;;;;5.00;3.93;;;;;;;12.71;98.16;101720.94;5024949;28;20056;-64
2023/05/21 02:05:29;;;;;;;5.03;3.80;;;;;;;12.75;99.50;101713.06;5024001;28;20778;-63
2023/05/21 02:07:54;;;;;;;5.13;3.70;;;;;;;12.75;98.93;101719.44;5024676;28;20470;-63
2023/05/21 02:10:20;;;;;;;6.03;3.88;;;;;;;12.79;99.22;101708.81;5025534;28;20547;-63
2023/05/21 02:12:45;;;;;;;5.47;4.00;;;;;;;12.83;98.61;101710.06;5024676;28;20041;-63
2023/05/21 02:15:12;;;;;;;5.22;3.65;;;;;;;12.85;97.28;101707.91;5024386;28;20022;-63
2023/05/21 02:17:38;;;;;;;5.65;4.00;;;;;;;12.89;96.54;101703.63;5024697;28;20465;-63
2023/05/21 02:20:10;;;;;;;5.68;3.92;;;;;;;12.93;97.29;101705.72;5023650;28;20104;-63
2023/05/21 02:22:46;;;;;;;5.32;3.60;;;;;;;12.99;98.14;101706.72;5024091;28;20034;-63
2023/05/21 02:25:13;;;;;;;6.18;4.00;;;;;;;13.01;97.13;101707.34;5039859;28;20033;-62
2023/05/21 02:27:39;;;;;;;5.40;4.10;;;;;;;13.04;97.36;101706.91;5024097;28;20596;-63
2023/05/21 02:30:07;;;;;;;6.32;4.88;;;;;;;13.06;97.15;101707.50;5024515;28;20057;-63
2023/05/21 02:32:33;;;;;;;7.00;4.05;;;;;;;13.08;96.64;101702.63;5024445;28;20048;-63
2023/05/21 02:35:00;;;;;;;4.43;3.75;;;;;;;13.10;98.31;101702.38;5023133;28;20357;-64
2023/05/21 02:37:26;;;;;;;6.18;4.18;;;;;;;13.10;97.54;101708.75;5024094;28;20041;-64
2023/05/21 02:39:52;;;;;;;6.57;4.43;;;;;;;13.12;98.17;101706.59;5070403;22;20014;-63
2023/05/21 02:42:17;;;;;;;5.30;4.05;;;;;;;13.15;97.83;101702.56;5023836;28;20562;-64
2023/05/21 02:44:43;;;;;;;4.75;3.80;;;;;;;13.18;97.83;101710.38;5024141;28;20117;-63
2023/05/21 02:47:09;;;;;;;6.28;3.97;;;;;;;13.19;98.31;101704.63;5023805;28;20434;-63
2023/05/21 02:49:34;;;;;;;5.63;4.18;;;;;;;13.21;97.55;101694.22;5023423;28;20065;-63
2023/05/21 02:51:59;;;;;;;5.03;3.80;;;;;;;13.22;98.19;101687.63;5023046;28;20053;-64
2023/05/21 02:54:25;;;;;;;5.85;4.07;;;;;;;13.23;97.49;101688.50;5024015;28;20033;-64
2023/05/21 02:56:50;;;;;;;6.30;4.57;;;;;;;13.25;97.64;101697.38;5024071;28;20053;-63
2023/05/21 02:59:15;;;;;;;5.53;4.20;;;;;;;13.28;97.04;101694.19;5023603;28;20025;-63
2023/05/21 03:01:40;;;;;;;5.35;4.40;;;;;;;13.30;95.86;101688.44;5024139;28;20039;-63
2023/05/21 03:04:06;;;;;;;4.82;4.20;;;;;;;13.31;96.49;101684.59;5023109;28;20091;-63
2023/05/21 03:06:31;;;;;;;5.75;3.92;;;;;;;13.34;97.20;101692.44;5023357;28;20033;-63
2023/05/21 03:08:56;;;;;;;5.72;4.53;;;;;;;13.34;96.46;101690.50;5023530;28;20443;-64
2023/05/21 03:11:21;;;;;;;4.85;3.72;;;;;;;13.36;96.93;101687.50;5024246;28;20033;-62
2023/05/21 03:13:47;;;;;;;4.95;3.72;;;;;;;13.38;97.28;101686.22;5024145;28;20696;-63
2023/05/21 03:16:12;;;;;;;5.80;4.35;;;;;;;13.38;94.99;101682.59;5018404;28;20036;-63
2023/05/21 03:18:38;;;;;;;6.60;4.40;;;;;;;13.40;96.09;101678.56;5003777;28;20245;-62
2023/05/21 03:21:04;;;;;;;6.47;4.13;;;;;;;13.42;97.07;101684.66;5002254;28;20052;-63
2023/05/21 03:23:30;;;;;;;5.82;4.72;;;;;;;13.41;97.05;101673.88;5003023;28;20022;-63
2023/05/21 03:25:56;;;;;;;6.30;4.10;;;;;;;13.41;96.75;101668.34;5003733;28;20663;-63
2023/05/21 03:28:21;;;;;;;6.35;4.28;;;;;;;13.41;96.18;101668.34;5004481;28;20018;-63
2023/05/21 03:30:48;;;;;;;5.35;4.15;;;;;;;13.42;95.64;101670.03;5003745;28;20152;-63
2023/05/21 03:33:15;;;;;;;5.45;4.00;;;;;;;13.43;96.70;101661.53;5003678;28;20143;-63
2023/05/21 03:35:40;;;;;;;7.43;4.35;;;;;;;13.42;95.07;101672.78;5003036;28;20022;-62
2023/05/21 03:38:05;;;;;;;5.80;4.50;;;;;;;13.43;96.66;101672.59;5003071;28;20022;-63
2023/05/21 03:40:31;;;;;;;6.82;4.43;;;;;;;13.42;95.94;101673.63;5003178;28;20065;-63
2023/05/21 03:42:56;;;;;;;6.68;4.47;;;;;;;13.43;96.44;101660.69;5003589;28;20022;-63
2023/05/21 03:45:21;;;;;;;5.70;3.90;;;;;;;13.43;96.29;101669.81;5004050;28;20014;-62
2023/05/21 03:47:47;;;;;;;4.70;4.03;;;;;;;13.43;96.03;101672.59;5003360;28;20030;-62
2023/05/21 03:50:12;;;;;;;5.80;4.30;;;;;;;13.42;96.94;101681.06;5002728;28;20478;-63
2023/05/21 03:52:38;;;;;;;5.75;4.22;;;;;;;13.40;97.62;101677.72;5003266;28;20030;-63
2023/05/21 03:55:03;;;;;;;5.85;4.53;;;;;;;13.40;97.10;101681.31;5003185;28;20184;-63
2023/05/21 03:57:29;;;;;;;6.60;4.00;;;;;;;13.39;98.22;101674.09;5004252;28;20536;-63
2023/05/21 03:59:54;;;;;;;4.80;3.97;;;;;;;13.39;98.88;101681.56;5003512;28;20073;-64
2023/05/21 04:02:21;;;;;;;6.95;4.40;;;;;;;13.40;97.91;101683.22;5003923;28;20531;-63
2023/05/21 04:04:46;;;;;;;6.25;4.32;;;;;;;13.38;97.87;101675.19;5002414;28;20026;-66
2023/05/21 04:07:14;;;;;;;6.05;4.00;;;;;;;13.39;98.10;101670.50;5003270;28;20048;-64
2023/05/21 04:09:40;;;;;;;6.78;4.32;;;;;;;13.38;98.25;101682.59;5003877;28;20060;-63
2023/05/21 04:12:06;;;;;;;6.13;4.18;;;;;;;13.32;98.20;101676.06;5002937;28;20179;-63
2023/05/21 04:14:32;;;;;;;5.32;4.00;;;;;;;13.30;98.93;101681.00;5003361;28;20485;-63
2023/05/21 04:16:58;;;;;;;4.95;4.13;;;;;;;13.25;99.52;101683.59;5003370;28;20036;-63
2023/05/21 04:19:24;;;;;;;5.22;4.30;;;;;;;13.19;99.13;101682.56;5002109;28;20018;-64
2023/05/21 04:21:49;;;;;;;5.95;4.28;;;;;;;13.17;99.82;101678.31;5003252;28;20049;-63
2023/05/21 04:24:15;;;;;;;6.13;4.50;;;;;;;13.14;100.00;101684.31;5003456;28;20030;-63
2023/05/21 04:26:41;;;;;;;6.20;4.57;;;;;;;13.09;99.74;101685.00;5003342;28;20036;-63
2023/05/21 04:29:07;;;;;;;6.15;4.35;;;;;;;13.07;100.00;101683.53;5003256;28;20022;-62
2023/05/21 04:31:32;;;;;;;6.03;4.60;;;;;;;13.07;100.00;101678.00;5003339;28;20022;-63
2023/05/21 04:33:58;;;;;;;6.00;4.55;;;;;;;13.05;100.00;101677.41;5002401;28;20037;-63
2023/05/21 04:36:23;;;;;;;6.00;4.35;;;;;;;13.05;100.00;101677.41;5005552;28;20103;-64
2023/05/21 04:38:49;;;;;;;7.43;5.10;;;;;;;13.04;100.00;101679.31;5007175;28;20029;-63
2023/05/21 04:41:14;;;;;;;7.03;4.78;;;;;;;13.05;100.00;101683.75;5006123;28;20042;-63
2023/05/21 04:43:42;;;;;;;7.22;5.13;;;;;;;13.07;100.00;101686.28;5006637;28;20057;-62
2023/05/21 04:46:08;;;;;;;6.95;4.70;;;;;;;13.10;100.00;101683.09;5006343;28;20053;-63
2023/05/21 04:48:33;;;;;;;5.32;4.63;;;;;;;13.10;100.00;101681.16;5006761;28;20065;-63
2023/05/21 04:50:59;;;;;;;6.55;5.00;;;;;;;13.12;100.00;101687.28;5004986;28;20472;-63
2023/05/21 04:53:24;;;;;;;6.25;4.95;;;;;;;13.15;100.00;101686.00;5006458;28;20535;-64
2023/05/21 04:55:50;;;;;;;6.93;4.72;;;;;;;13.16;100.00;101687.69;5006471;28;20018;-63
2023/05/21 04:58:17;;;;;;;6.40;4.93;;;;;;;13.20;100.00;101692.53;5006151;28;20109;-63
2023/05/21 05:00:44;;;;;;;6.43;4.90;;;;;;;13.19;100.00;101688.09;5005879;28;20530;-63
2023/05/21 05:03:10;;;;;;;6.32;5.03;;;;;;;13.22;100.00;101692.31;5006082;28;20041;-63
2023/05/21 05:05:35;;;;;;;7.07;4.82;;;;;;;13.23;100.00;101688.50;5005172;28;20029;-63
2023/05/21 05:08:01;;;;;;;6.32;5.28;;;;;;;13.24;100.00;101684.66;5005312;28;20022;-64
2023/05/21 05:10:26;;;;;;;5.70;4.65;;;;;;;13.29;100.00;101681.22;5004784;28;20043;-64
2023/05/21 05:12:51;;;;;;;5.80;4.80;;;;;;;13.31;100.00;101688.19;5006579;28;20034;-62
2023/05/21 05:15:17;;;;;;;6.70;5.65;;;;;;;13.36;100.00;101682.84;5005696;28;20029;-63
2023/05/21 05:17:43;;;;;;;7.13;5.10;;;;;;;13.34;100.00;101687.75;5005798;28;20099;-62
2023/05/21 05:20:09;;;;;;;6.68;5.22;;;;;;;13.36;100.00;101685.59;5004816;28;20481;-63
2023/05/21 05:22:35;;;;;;;7.50;4.85;;;;;;;13.39;100.00;101679.63;5005079;28;20512;-62
2023/05/21 05:25:00;;;;;;;7.00;5.07;;;;;;;13.42;100.00;101681.91;5006016;28;20026;-64
2023/05/21 05:27:25;;;;;;;6.50;5.40;;;;;;;13.45;100.00;101675.94;5006034;28;20080;-62
2023/05/21 05:29:51;;;;;;;7.85;5.38;;;;;;;13.45;100.00;101675.94;5006039;28;20030;-62
2023/05/21 05:32:16;;;;;;;6.43;5.03;;;;;;;13.49;100.00;101674.41;5005098;28;20092;-63
2023/05/21 05:34:43;;;;;;;7.25;5.53;;;;;;;13.54;100.00;101686.69;5005082;28;20485;-63
2023/05/21 05:37:09;;;;;;;7.33;5.70;;;;;;;13.57;100.00;101680.69;5005027;28;20029;-63
2023/05/21 05:39:34;;;;;;;8.07;5.45;;;;;;;13.61;100.00;101676.41;5005117;28;20058;-63
2023/05/21 05:42:00;;;;;;;7.10;5.65;;;;;;;13.67;99.54;101678.22;5019775;28;20140;-64
2023/05/21 05:44:25;;;;;;;7.03;5.40;;;;;;;13.70;99.57;101681.38;5005682;28;20057;-63
2023/05/21 05:46:51;;;;;;;6.75;5.72;;;;;;;13.75;99.21;101686.22;5004403;28;20026;-63
2023/05/21 05:49:16;;;;;;;6.28;5.53;;;;;;;13.83;99.50;101679.53;5004189;28;20101;-62
2023/05/21 05:51:41;;;;;;;9.50;5.53;;;;;;;13.89;99.39;101676.69;5004672;28;20026;-62
2023/05/21 05:54:07;;;;;;;6.97;5.25;;;;;;;13.95;98.70;101677.69;5005000;28;20033;-62
2023/05/21 05:56:32;;;;;;;6.75;5.50;;;;;;;14.03;97.85;101671.81;5005085;28;20030;-63
2023/05/21 05:58:58;;;;;;;7.03;5.45;;;;;;;14.07;96.88;101683.25;5005051;28;20504;-63
2023/05/21 06:01:23;;;;;;;7.90;5.43;;;;;;;14.13;97.50;101685.06;5004928;28;20018;-64
2023/05/21 06:03:49;;;;;;;7.00;5.78;;;;;;;14.18;98.10;101688.81;5003055;28;20164;-62
2023/05/21 06:06:15;;;;;;;7.30;5.90;;;;;;;14.23;97.93;101688.13;5004337;28;20034;-63
2023/05/21 06:08:41;;;;;;;6.70;5.60;;;;;;;14.30;97.89;101686.13;5005264;28;20045;-62
2023/05/21 06:11:06;;;;;;;6.90;5.57;;;;;;;14.35;97.01;101679.88;5004645;28;20022;-63
2023/05/21 06:13:32;;;;;;;7.55;5.72;;;;;;;14.40;96.60;101685.53;5005161;28;20025;-63
2023/05/21 06:15:57;;;;;;;6.75;5.90;;;;;;;14.45;96.72;101683.75;5017140;28;20116;-63
2023/05/21 06:18:22;;;;;;;8.02;5.85;;;;;;;14.55;95.80;101688.75;4984523;28;20661;-64
2023/05/21 06:20:47;;;;;;;6.50;5.57;;;;;;;14.57;95.53;101689.34;4984709;28;20034;-62
2023/05/21 06:23:13;;;;;;;6.57;5.28;;;;;;;14.64;94.40;101689.22;4984630;28;20026;-63
2023/05/21 06:25:39;;;;;;;6.45;5.22;;;;;;;14.77;95.87;101678.78;4985441;28;20022;-63
2023/05/21 06:28:05;;;;;;;6.20;5.55;;;;;;;14.88;95.05;101681.81;4984339;28;20430;-63
2023/05/21 06:30:30;;;;;;;6.82;5.93;;;;;;;15.03;95.04;101679.41;4985492;28;20034;-62
2023/05/21 06:32:56;;;;;;;6.85;5.28;;;;;;;15.08;91.86;101678.69;4984778;28;20026;-63
2023/05/21 06:35:22;;;;;;;8.18;5.50;;;;;;;15.23;93.34;101682.66;4984479;28;20026;-63
2023/05/21 06:37:47;;;;;;;8.32;6.13;;;;;;;15.30;94.05;101688.06;4984779;28;20097;-63
2023/05/21 06:40:13;;;;;;;7.72;5.75;;;;;;;15.35;92.51;101679.88;4984651;28;20088;-62
2023/05/21 06:42:38;;;;;;;7.20;5.30;;;;;;;15.36;90.05;101684.34;4984226;28;20223;-63
2023/05/21 06:45:04;;;;;;;6.32;5.15;;;;;;;15.28;89.72;101684.72;4984586;28;20030;-63
2023/05/21 06:47:29;;;;;;;8.07;5.35;;;;;;;15.29;91.88;101676.16;4984528;28;20042;-63
2023/05/21 06:49:55;;;;;;;7.20;5.60;;;;;;;15.49;89.27;101683.25;4983873;28;20246;-63
2023/05/21 06:52:20;;;;;;;7.63;5.82;;;;;;;15.34;91.16;101675.44;4984291;28;20019;-62
2023/05/21 06:54:45;;;;;;;6.97;5.45;;;;;;;15.36;90.01;101678.81;4984966;28;20033;-62
2023/05/21 06:57:13;;;;;;;7.05;5.45;;;;;;;15.53;88.18;101676.97;4984262;28;20399;-63
2023/05/21 06:59:38;;;;;;;;;;;;;;;15.49;88.40;101678.53;4984736;28;20034;-64
2023/05/21 07:02:05;;;;;;;6.73;6.03;;;;;;;15.48;88.80;101679.63;4984198;28;20165;-63
2023/05/21 07:04:30;;;;;;;7.55;5.85;;;;;;;15.45;91.65;101670.97;4983946;28;20026;-63
2023/05/21 07:06:56;;;;;;;8.07;6.45;;;;;;;15.52;92.06;101678.06;4983476;28;20026;-64
2023/05/21 07:09:21;;;;;;;6.78;5.90;;;;;;;15.61;89.42;101675.75;4985039;28;20167;-63
2023/05/21 07:11:47;;;;;;;6.57;5.60;;;;;;;15.80;90.09;101659.84;4984456;28;20469;-63
2023/05/21 07:14:12;;;;;;;7.35;6.10;;;;;;;15.93;88.84;101659.56;4984448;28;20281;-62
2023/05/21 07:16:38;;;;;;;6.32;5.68;;;;;;;16.03;86.97;101659.75;4992119;28;20034;-62
2023/05/21 07:19:03;;;;;;;7.05;5.95;;;;;;;16.11;85.95;101652.13;5003085;28;20135;-62
2023/05/21 07:21:28;;;;;;;7.22;5.95;;;;;;;16.00;88.94;101651.09;5003508;28;20159;-63
2023/05/21 07:23:54;;;;;;;8.23;5.93;;;;;;;16.15;90.17;101656.94;5002065;28;20070;-64
2023/05/21 07:26:20;;;;;;;7.07;5.55;;;;;;;16.27;85.35;101654.09;5004623;28;20038;-63
2023/05/21 07:28:45;;;;;;;8.07;6.05;;;;;;;16.24;85.87;101644.38;5004122;28;20026;-63
2023/05/21 07:31:11;;;;;;;9.65;7.07;;;;;;;16.37;85.68;101656.22;5003424;28;20029;-63
2023/05/21 07:33:36;;;;;;;7.05;6.03;;;;;;;17.07;86.25;101650.19;5003373;28;20018;-62
2023/05/21 07:36:02;;;;;;;6.82;5.90;;;;;;;18.04;81.65;101646.78;5003324;28;20025;-62
2023/05/21 07:38:28;;;;;;;7.93;6.03;;;;;;;18.37;78.05;101644.91;5003883;28;20033;-62
2023/05/21 07:40:53;;;;;;;7.15;5.82;;;;;;;18.31;76.61;101651.53;5001990;28;20450;-64
2023/05/21 07:43:18;;;;;;;9.00;6.22;;;;;;;18.31;78.17;101651.53;5004070;28;20308;-62
2023/05/21 07:45:44;;;;;;;7.30;6.35;;;;;;;18.14;77.19;101651.59;5003984;28;20045;-63
2023/05/21 07:48:10;;;;;;;8.70;6.45;;;;;;;18.02;76.37;101649.00;5002166;28;20105;-63
2023/05/21 07:50:36;;;;;;;7.80;6.38;;;;;;;17.77;80.65;101645.91;5003739;28;20026;-63
2023/05/21 07:53:02;;;;;;;7.72;6.80;;;;;;;17.73;80.18;101647.53;5003353;28;20028;-62
2023/05/21 07:55:27;;;;;;;8.50;6.70;;;;;;;17.81;79.58;101645.13;5003464;28;20123;-62
2023/05/21 07:57:52;;;;;;;7.72;6.93;;;;;;;17.94;81.21;101646.66;5004088;28;20512;-63
2023/05/21 08:00:18;;;;;;;7.20;6.50;;;;;;;17.98;79.53;101649.78;5003291;28;20022;-62
2023/05/21 08:02:43;;;;;;;7.47;5.95;;;;;;;18.04;78.87;101646.78;5003206;28;20088;-62
2023/05/21 08:05:09;;;;;;;7.75;6.40;;;;;;;18.04;79.59;101646.78;5002639;28;20489;-61
2023/05/21 08:07:35;;;;;;;8.32;6.53;;;;;;;18.09;79.39;101646.84;5003208;28;20026;-62
2023/05/21 08:10:00;;;;;;;7.43;6.40;;;;;;;18.19;78.83;101650.81;5004638;28;20534;-63
2023/05/21 08:12:26;;;;;;;9.20;6.80;;;;;;;18.30;78.74;101645.13;5006575;28;20066;-62
2023/05/21 08:14:51;;;;;;;7.20;6.03;;;;;;;18.26;76.90;101651.47;5007684;28;20033;-62
2023/05/21 08:17:16;;;;;;;7.43;6.72;;;;;;;18.32;76.27;101650.41;5006936;28;20105;-63
2023/05/21 08:19:42;;;;;;;8.05;6.40;;;;;;;18.42;77.78;101653.31;5006275;28;20030;-62
2023/05/21 08:22:07;;;;;;;7.38;6.43;;;;;;;18.35;74.98;101645.19;5006683;28;20032;-62
2023/05/21 08:24:32;;;;;;;8.77;6.75;;;;;;;18.57;76.78;101647.03;5007115;28;20037;-63
2023/05/21 08:26:58;;;;;;;7.97;7.18;;;;;;;18.69;78.32;101652.44;5006108;28;20022;-63
2023/05/21 08:29:23;;;;;;;8.70;6.68;;;;;;;18.69;75.77;101646.88;5007142;28;20030;-63
2023/05/21 08:31:48;;;;;;;8.15;7.15;;;;;;;18.70;74.43;101643.00;5007000;28;20392;-62
2023/05/21 08:34:14;;;;;;;7.65;6.57;;;;;;;18.78;76.38;101639.72;5005433;28;20461;-62
2023/05/21 08:36:42;;;;;;;7.03;6.32;;;;;;;18.86;74.82;101636.47;5006030;28;20056;-63
2023/05/21 08:39:07;;;;;;;;;;;;;;;18.98;74.70;101639.03;5006889;28;20476;-63
2023/05/21 08:41:35;;;;;;;8.13;6.63;;;;;;;18.86;75.29;101631.72;5006319;28;19972;-63
2023/05/21 08:44:01;;;;;;;8.35;6.45;;;;;;;18.87;73.01;101633.41;5006132;28;20417;-63
2023/05/21 08:46:31;;;;;;;7.50;6.68;;;;;;;18.79;75.20;101628.31;5006567;28;20508;-62
2023/05/21 08:48:57;;;;;;;8.95;6.65;;;;;;;19.01;75.70;101632.91;5005484;28;20030;-62
2023/05/21 08:51:23;;;;;;;8.30;7.07;;;;;;;19.00;73.78;101622.91;5005873;28;20022;-62
2023/05/21 08:53:49;;;;;;;8.70;6.95;;;;;;;19.04;72.92;101626.81;5007066;28;20030;-62
2023/05/21 08:56:16;;;;;;;7.30;6.60;;;;;;;19.24;78.57;101624.16;5006016;28;20021;-62
2023/05/21 08:58:44;;;;;;;7.65;6.50;;;;;;;19.41;76.00;101633.19;5006208;28;20030;-62
2023/05/21 09:01:11;;;;;;;7.57;6.75;;;;;;;19.64;75.86;101622.72;5005992;28;20029;-62
2023/05/21 09:03:39;;;;;;;8.18;5.88;;;;;;;19.77;73.48;101610.22;5005523;28;20384;-62
2023/05/21 09:06:08;;;;;;;8.20;6.43;;;;;;;19.94;72.43;101619.22;5005283;28;20378;-62
2023/05/21 09:08:37;;;;;;;7.10;6.07;;;;;;;20.11;71.42;101608.63;5021335;28;20022;-62
2023/05/21 09:11:02;;;;;;;7.15;5.97;;;;;;;20.31;71.71;101607.81;5006044;28;20408;-62
2023/05/21 09:13:30;;;;;;;8.63;6.57;;;;;;;20.53;70.16;101599.25;5005973;28;20101;-61
2023/05/21 09:15:55;;;;;;;7.95;7.15;;;;;;;20.67;71.95;101617.06;5005656;28;20137;-63
2023/05/21 09:18:21;;;;;;;8.27;7.07;;;;;;;20.71;67.09;101608.97;5005746;28;20152;-61
2023/05/21 09:20:46;;;;;;;7.20;6.40;;;;;;;20.98;69.80;101611.47;5004965;28;20049;-61
2023/05/21 09:23:16;;;;;;;7.85;6.68;;;;;;;21.42;71.26;101605.22;5004798;28;20060;-61
2023/05/21 09:25:47;;;;;;;7.90;6.07;;;;;;;21.65;65.53;101610.19;5006322;28;20412;-62
2023/05/21 09:28:16;;;;;;;8.13;6.30;;;;;;;21.88;66.36;101605.00;5005557;28;20022;-61
2023/05/21 09:30:52;;;;;;;8.45;6.35;;;;;;;22.21;65.41;101607.09;5005717;28;20055;-62
2023/05/21 09:33:25;;;;;;;7.28;6.53;;;;;;;22.68;65.00;101613.97;5004710;28;20455;-61
2023/05/21 09:35:50;;;;;;;7.85;6.88;;;;;;;23.41;56.76;101606.53;5005946;28;20026;-62
2023/05/21 09:38:16;;;;;;;8.32;6.75;;;;;;;24.30;54.83;101607.56;5004862;28;20028;-62
2023/05/21 09:40:48;;;;;;;7.45;6.20;;;;;;;25.33;53.71;101607.44;5004007;28;20137;-62
2023/05/21 09:43:15;;;;;;;8.75;6.03;;;;;;;25.94;49.89;101604.50;5005480;28;20807;-63
2023/05/21 09:45:52;;;;;;;7.80;6.17;;;;;;;26.50;50.67;101609.66;5005731;28;20022;-62
2023/05/21 09:48:35;;;;;;;7.53;6.65;;;;;;;26.89;51.41;101608.09;5004203;28;20025;-62
2023/05/21 09:51:16;;;;;;;8.20;6.13;;;;;;;27.40;48.73;101613.19;5004955;28;20037;-63
2023/05/21 09:53:53;;;;;;;8.38;6.57;;;;;;;27.64;47.52;101603.47;5005614;28;20030;-62
2023/05/21 09:56:29;;;;;;;8.18;6.13;;;;;;;28.36;46.76;101591.66;5005505;28;20072;-62
2023/05/21 09:59:00;;;;;;;6.90;5.40;;;;;;;29.20;42.92;101597.81;5004516;28;20616;-63
2023/05/21 10:01:27;;;;;;;6.82;5.72;;;;;;;29.13;40.82;101598.31;5004743;28;20036;-62
2023/05/21 10:03:58;;;;;;;7.15;5.85;;;;;;;28.76;43.35;101594.25;5004697;28;20449;-62
2023/05/21 10:06:25;;;;;;;7.68;5.80;;;;;;;28.52;43.24;101597.59;5005066;28;20022;-63
2023/05/21 10:08:55;;;;;;;6.93;6.15;;;;;;;28.48;43.30;101595.78;5006155;28;20083;-62
2023/05/21 10:11:25;;;;;;;7.47;6.13;;;;;;;28.10;43.03;101596.44;5005527;28;20030;-62
2023/05/21 10:13:57;;;;;;;6.60;5.85;;;;;;;28.55;43.29;101585.66;5006076;28;20026;-62
2023/05/21 10:16:23;;;;;;;7.43;6.13;;;;;;;29.33;42.01;101587.41;5005415;28;20014;-62
2023/05/21 10:18:49;;;;;;;7.50;6.07;;;;;;;29.64;40.25;101584.28;5003034;28;20026;-62
2023/05/21 10:21:15;;;;;;;7.50;6.03;;;;;;;28.95;40.05;101580.59;5004503;28;20162;-62
2023/05/21 10:23:42;;;;;;;7.75;6.47;;;;;;;28.57;39.81;101590.94;5003855;28;20481;-63
2023/05/21 10:26:09;;;;;;;7.47;6.33;;;;;;;28.97;42.89;101583.06;5005005;28;20034;-62
2023/05/21 10:28:35;;;;;;;7.80;6.03;;;;;;;29.16;41.69;101577.03;5004833;28;20277;-62
2023/05/21 10:31:02;;;;;;;7.72;5.97;;;;;;;28.53;43.94;101576.66;5004498;28;20060;-62
2023/05/21 10:33:28;;;;;;;8.52;6.53;;;;;;;29.09;39.47;101569.03;5003190;28;20018;-62
2023/05/21 10:35:57;;;;;;;7.47;6.63;;;;;;;29.89;40.29;101568.28;5004506;28;20365;-62
2023/05/21 10:38:23;;;;;;;7.45;5.95;;;;;;;30.72;39.08;101571.09;5005392;28;20026;-62
2023/05/21 10:40:49;;;;;;;8.63;6.43;;;;;;;30.56;38.12;101555.03;5004992;28;20042;-61
2023/05/21 10:43:30;;;;;;;8.43;6.43;;;;;;;30.26;40.44;101560.81;5004539;28;20022;-62
2023/05/21 10:46:15;;;;;;;8.63;6.85;;;;;;;29.04;42.00;101551.44;5004212;28;20029;-61
2023/05/21 10:49:01;;;;;;;7.88;7.07;;;;;;;28.29;43.75;101548.09;5003986;28;20022;-61
2023/05/21 10:51:48;;;;;;;7.70;6.90;;;;;;;27.52;44.97;101556.13;5003508;28;20046;-62
2023/05/21 10:54:49;;;;;;;9.67;7.80;;;;;;;26.85;46.33;101548.72;5004354;28;20443;-62
2023/05/21 10:58:01;;;;;;;8.88;7.40;;;;;;;26.74;49.74;101541.69;5003621;28;20033;-62
2023/05/21 11:00:27;;;;;;;8.55;7.25;;;;;;;26.24;49.82;101547.47;5003990;28;20109;-62
2023/05/21 11:02:53;;;;;;;8.70;7.80;;;;;;;25.79;51.16;101536.16;5003669;28;20400;-62
2023/05/21 11:05:54;;;;;;;8.32;7.53;;;;;;;25.67;51.33;101523.78;5004013;28;20037;-62
2023/05/21 11:08:29;;;;;;;9.95;8.13;;;;;;;25.42;51.07;101528.00;4942957;29;20027;-62
2023/05/21 11:10:57;;;;;;;9.20;8.30;;;;;;;25.00;50.67;101519.56;4995357;28;20116;-62
2023/05/21 11:13:23;;;;;;;10.32;8.43;;;;;;;24.79;49.56;101519.13;5004866;28;20038;-62
2023/05/21 11:16:00;;;;;;;10.35;9.05;;;;;;;24.51;55.21;101517.41;5004792;28;20121;-62
2023/05/21 11:18:36;;;;;;;9.85;8.85;;;;;;;24.68;55.19;101514.81;5002907;28;20091;-61
2023/05/21 11:21:09;;;;;;;10.25;9.05;;;;;;;24.88;57.03;101515.56;5003253;28;20405;-62
2023/05/21 11:23:55;;;;;;;9.73;8.73;;;;;;;25.12;53.51;101515.41;5004485;28;20021;-62